createdAt,value
2023-05-09T00:02:07.946Z,89.50
2023-05-09T00:04:35.432Z,90.07
2023-05-09T00:07:02.247Z,89.97
2023-05-09T00:09:28.868Z,89.18
2023-05-09T00:11:55.497Z,89.58
2023-05-09T00:14:22.192Z,89.90
2023-05-09T00:16:49.235Z,90.30
2023-05-09T00:19:16.070Z,89.88
2023-05-09T00:21:42.724Z,89.61
2023-05-09T00:24:09.306Z,89.80
2023-05-09T00:26:35.930Z,89.63
2023-05-09T00:29:02.675Z,89.67
2023-05-09T00:31:29.361Z,89.25
2023-05-09T00:33:56.109Z,88.75
2023-05-09T00:36:23.453Z,88.09
2023-05-09T00:38:50.134Z,88.25
2023-05-09T00:41:16.695Z,88.21
2023-05-09T00:43:43.476Z,88.43
2023-05-09T00:46:10.329Z,88.90
2023-05-09T00:48:37.076Z,88.55
2023-05-09T00:51:04.922Z,89.93
2023-05-09T00:53:31.696Z,88.79
2023-05-09T00:56:00.253Z,89.01
2023-05-09T00:58:27.394Z,89.78
2023-05-09T01:00:54.134Z,88.34
2023-05-09T01:03:21.001Z,89.33
2023-05-09T01:06:20.231Z,88.73
2023-05-09T01:09:00.001Z,88.88
2023-05-09T01:11:33.471Z,88.71
2023-05-09T01:14:15.690Z,87.52
2023-05-09T01:16:50.078Z,88.09
2023-05-09T01:19:27.631Z,88.99
2023-05-09T01:21:56.430Z,88.83
2023-05-09T01:24:28.810Z,88.61
2023-05-09T01:27:07.234Z,87.40
2023-05-09T01:29:45.093Z,87.04
2023-05-09T01:32:20.313Z,87.16
2023-05-09T01:34:48.100Z,87.24
2023-05-09T01:37:16.367Z,87.47
2023-05-09T01:39:49.155Z,87.93
2023-05-09T01:42:17.416Z,88.35
2023-05-09T01:44:45.910Z,88.71
2023-05-09T01:47:13.114Z,88.41
2023-05-09T01:49:41.209Z,88.27
2023-05-09T01:52:10.250Z,87.83
2023-05-09T01:54:38.462Z,88.35
2023-05-09T01:57:06.526Z,88.94
2023-05-09T01:59:34.732Z,89.05
2023-05-09T02:02:03.240Z,89.54
2023-05-09T02:04:30.963Z,88.93
2023-05-09T02:06:58.200Z,89.26
2023-05-09T02:09:24.937Z,89.14
2023-05-09T02:11:51.729Z,89.39
2023-05-09T02:14:19.693Z,89.04
2023-05-09T02:16:46.419Z,88.92
2023-05-09T02:19:13.086Z,89.33
2023-05-09T02:21:39.891Z,90.59
2023-05-09T02:24:06.725Z,91.25
2023-05-09T02:26:35.851Z,92.00
2023-05-09T02:29:03.633Z,91.98
2023-05-09T02:31:30.916Z,91.44
2023-05-09T02:33:59.323Z,91.11
2023-05-09T02:36:26.486Z,91.93
2023-05-09T02:38:53.218Z,91.11
2023-05-09T02:41:19.971Z,90.90
2023-05-09T02:43:47.464Z,91.38
2023-05-09T02:46:14.856Z,91.20
2023-05-09T02:48:41.550Z,91.45
2023-05-09T02:51:08.299Z,91.06
2023-05-09T02:53:34.984Z,91.18
2023-05-09T02:56:01.917Z,91.04
2023-05-09T02:58:28.594Z,90.95
2023-05-09T03:00:55.333Z,90.98
2023-05-09T03:03:23.441Z,90.77
2023-05-09T03:05:51.531Z,91.36
2023-05-09T03:08:18.215Z,91.48
2023-05-09T03:10:44.997Z,91.55
2023-05-09T03:13:11.708Z,91.26
2023-05-09T03:15:38.601Z,91.40
2023-05-09T03:18:06.420Z,91.30
2023-05-09T03:20:33.166Z,90.89
2023-05-09T03:22:59.821Z,91.77
2023-05-09T03:25:26.710Z,91.62
2023-05-09T03:27:53.387Z,91.53
2023-05-09T03:30:20.187Z,91.85
2023-05-09T03:32:49.109Z,92.29
2023-05-09T03:35:16.338Z,90.92
2023-05-09T03:37:43.491Z,91.54
2023-05-09T03:40:10.847Z,92.05
2023-05-09T03:42:45.488Z,91.33
2023-05-09T03:45:12.544Z,89.58
2023-05-09T03:47:39.754Z,88.40
2023-05-09T03:50:07.091Z,88.78
2023-05-09T03:52:34.396Z,90.57
2023-05-09T03:55:01.701Z,91.76
2023-05-09T03:57:32.058Z,90.48
2023-05-09T03:59:58.749Z,89.83
2023-05-09T04:02:25.676Z,89.97
2023-05-09T04:04:53.102Z,90.71
2023-05-09T04:07:22.056Z,91.08
2023-05-09T04:09:49.565Z,91.64
2023-05-09T04:12:16.508Z,91.07
2023-05-09T04:14:46.168Z,91.87
2023-05-09T04:17:14.872Z,92.19
2023-05-09T04:19:41.493Z,91.45
2023-05-09T04:22:08.164Z,91.49
2023-05-09T04:24:34.786Z,91.47
2023-05-09T04:27:02.296Z,90.86
2023-05-09T04:29:29.056Z,90.37
2023-05-09T04:31:56.562Z,90.32
2023-05-09T04:34:27.144Z,91.92
2023-05-09T04:36:55.470Z,91.36
2023-05-09T04:39:22.257Z,91.37
2023-05-09T04:41:58.086Z,90.92
2023-05-09T04:44:24.940Z,91.11
2023-05-09T04:46:52.159Z,90.73
2023-05-09T04:49:18.901Z,91.23
2023-05-09T04:51:45.548Z,90.72
2023-05-09T04:54:12.203Z,90.42
2023-05-09T04:56:41.021Z,89.98
2023-05-09T04:59:07.841Z,90.55
2023-05-09T05:01:34.585Z,91.15
2023-05-09T05:04:01.602Z,90.15
2023-05-09T05:06:30.145Z,90.53
2023-05-09T05:08:56.920Z,90.65
2023-05-09T05:11:23.537Z,90.89
2023-05-09T05:13:50.351Z,90.01
2023-05-09T05:16:17.142Z,88.95
2023-05-09T05:18:44.426Z,89.15
2023-05-09T05:21:11.224Z,88.77
2023-05-09T05:23:37.965Z,87.94
2023-05-09T05:26:05.285Z,87.14
2023-05-09T05:28:34.474Z,86.32
2023-05-09T05:31:02.172Z,85.73
2023-05-09T05:33:28.873Z,84.93
2023-05-09T05:35:56.028Z,84.05
2023-05-09T05:38:22.810Z,83.89
2023-05-09T05:40:53.381Z,83.05
2023-05-09T05:43:21.062Z,82.64
2023-05-09T05:45:47.828Z,83.20
2023-05-09T05:48:17.979Z,82.69
2023-05-09T05:50:46.269Z,82.64
2023-05-09T05:53:15.262Z,82.14
2023-05-09T05:55:42.060Z,81.90
2023-05-09T05:58:08.699Z,80.67
2023-05-09T06:00:36.209Z,80.03
2023-05-09T06:03:05.828Z,78.62
2023-05-09T06:05:46.904Z,78.42
2023-05-09T06:08:13.757Z,78.82
2023-05-09T06:10:40.443Z,78.76
2023-05-09T06:13:07.276Z,78.48
2023-05-09T06:15:35.750Z,78.27
2023-05-09T06:18:02.530Z,78.09
2023-05-09T06:20:29.323Z,76.71
2023-05-09T06:22:56.089Z,78.30
2023-05-09T06:25:22.685Z,79.44
2023-05-09T06:27:49.395Z,78.56
2023-05-09T06:30:25.328Z,78.62
2023-05-09T06:32:53.906Z,77.58
2023-05-09T06:35:20.860Z,76.78
2023-05-09T06:37:48.764Z,77.20
2023-05-09T06:40:16.533Z,76.30
2023-05-09T06:42:43.149Z,75.54
2023-05-09T06:45:10.398Z,74.66
2023-05-09T06:47:37.361Z,73.94
2023-05-09T06:50:04.279Z,74.62
2023-05-09T06:52:30.874Z,75.47
2023-05-09T06:54:57.662Z,74.44
2023-05-09T06:57:24.322Z,74.30
2023-05-09T06:59:51.102Z,74.69
2023-05-09T07:02:17.768Z,75.17
2023-05-09T07:04:44.386Z,73.87
2023-05-09T07:07:11.236Z,73.24
2023-05-09T07:09:38.039Z,72.62
2023-05-09T07:12:05.118Z,72.34
2023-05-09T07:14:31.861Z,72.20
2023-05-09T07:17:13.714Z,72.36
2023-05-09T07:19:45.446Z,71.23
2023-05-09T07:22:13.431Z,71.19
2023-05-09T07:24:40.304Z,70.93
2023-05-09T07:27:07.003Z,71.13
2023-05-09T07:29:33.751Z,70.01
2023-05-09T07:32:00.531Z,69.16
2023-05-09T07:34:27.422Z,69.29
2023-05-09T07:36:54.019Z,68.90
2023-05-09T07:39:20.750Z,68.05
2023-05-09T07:41:48.700Z,67.32
2023-05-09T07:44:15.982Z,66.46
2023-05-09T07:46:42.836Z,66.51
2023-05-09T07:49:10.008Z,65.69
2023-05-09T07:51:36.701Z,65.29
2023-05-09T07:54:03.518Z,64.52
2023-05-09T07:56:30.267Z,65.40
2023-05-09T07:58:56.942Z,63.89
2023-05-09T08:01:23.625Z,63.48
2023-05-09T08:03:50.819Z,63.34
2023-05-09T08:06:17.594Z,63.52
2023-05-09T08:08:44.260Z,63.34
2023-05-09T08:11:10.847Z,62.98
2023-05-09T08:13:37.536Z,61.29
2023-05-09T08:16:04.592Z,61.36
2023-05-09T08:18:31.588Z,61.12
2023-05-09T08:20:59.686Z,60.23
2023-05-09T08:23:26.869Z,60.97
2023-05-09T08:25:56.650Z,59.60
2023-05-09T08:28:24.319Z,58.82
2023-05-09T08:30:51.779Z,57.42
2023-05-09T08:33:18.452Z,56.44
2023-05-09T08:35:46.102Z,57.06
2023-05-09T08:38:12.868Z,57.64
2023-05-09T08:40:41.137Z,57.17
2023-05-09T08:43:08.804Z,57.55
2023-05-09T08:45:47.293Z,57.85
2023-05-09T08:48:17.662Z,57.82
2023-05-09T08:50:44.597Z,58.19
2023-05-09T08:53:12.133Z,57.75
2023-05-09T08:55:39.282Z,58.64
2023-05-09T08:58:06.674Z,57.72
2023-05-09T09:00:34.044Z,58.59
2023-05-09T09:03:04.115Z,58.14
2023-05-09T09:05:41.469Z,57.58
2023-05-09T09:08:10.130Z,58.24
2023-05-09T09:10:40.141Z,58.82
2023-05-09T09:13:07.255Z,58.34
2023-05-09T09:15:37.058Z,57.83
2023-05-09T09:18:09.995Z,57.69
2023-05-09T09:21:06.823Z,54.99
2023-05-09T09:23:33.544Z,55.75
2023-05-09T09:26:02.141Z,56.23
2023-05-09T09:28:29.535Z,57.34
2023-05-09T09:30:57.039Z,57.43
2023-05-09T09:33:25.021Z,56.72
2023-05-09T09:35:53.176Z,56.12
2023-05-09T09:38:24.072Z,55.62
2023-05-09T09:40:57.912Z,54.73
2023-05-09T09:43:28.843Z,53.26
2023-05-09T09:45:57.144Z,52.98
2023-05-09T09:48:27.546Z,52.61
2023-05-09T09:50:56.743Z,53.85
2023-05-09T09:53:23.988Z,52.97
2023-05-09T09:55:52.025Z,53.48
2023-05-09T09:58:22.179Z,54.46
2023-05-09T10:01:07.587Z,54.61
2023-05-09T10:03:42.390Z,54.07
2023-05-09T10:06:13.488Z,53.11
2023-05-09T10:08:41.309Z,52.18
2023-05-09T10:11:09.438Z,50.15
2023-05-09T10:13:36.590Z,51.47
2023-05-09T10:16:04.057Z,52.17
2023-05-09T10:18:31.497Z,52.69
2023-05-09T10:21:03.995Z,51.35
2023-05-09T10:23:32.023Z,53.38
2023-05-09T10:26:21.029Z,52.61
2023-05-09T10:28:49.315Z,52.60
2023-05-09T10:31:22.211Z,53.40
2023-05-09T10:33:50.379Z,52.74
2023-05-09T10:36:20.431Z,51.82
2023-05-09T10:38:47.272Z,52.68
2023-05-09T10:41:15.524Z,53.18
2023-05-09T10:43:43.431Z,53.15
2023-05-09T10:46:10.275Z,51.71
2023-05-09T10:48:37.388Z,53.02
2023-05-09T10:51:04.645Z,52.57
2023-05-09T10:53:45.892Z,52.71
2023-05-09T10:56:35.826Z,51.88
2023-05-09T10:59:02.897Z,52.41
2023-05-09T11:01:30.534Z,52.77
2023-05-09T11:03:59.396Z,51.60
2023-05-09T11:06:51.549Z,51.50
2023-05-09T11:09:25.404Z,52.05
2023-05-09T11:11:53.157Z,52.34
2023-05-09T11:14:39.550Z,53.15
2023-05-09T11:17:26.234Z,53.13
2023-05-09T11:19:52.846Z,52.78
2023-05-09T11:22:21.267Z,52.00
2023-05-09T11:24:53.936Z,52.41
2023-05-09T11:27:21.739Z,52.71
2023-05-09T11:29:59.450Z,51.71
2023-05-09T11:32:32.265Z,52.57
2023-05-09T11:35:14.745Z,53.33
2023-05-09T11:38:01.123Z,52.73
2023-05-09T11:40:28.799Z,53.21
2023-05-09T11:42:58.613Z,53.34
2023-05-09T11:45:27.407Z,52.95
2023-05-09T11:47:54.660Z,52.41
2023-05-09T11:50:21.805Z,52.80
2023-05-09T11:52:48.947Z,52.11
2023-05-09T11:55:17.627Z,50.97
2023-05-09T11:57:50.001Z,52.01
2023-05-09T12:00:21.504Z,51.80
2023-05-09T12:02:49.227Z,51.56
2023-05-09T12:05:18.672Z,52.35
2023-05-09T12:07:46.147Z,55.13
2023-05-09T12:10:17.306Z,55.13
2023-05-09T12:12:51.461Z,56.03
2023-05-09T12:15:19.253Z,57.84
2023-05-09T12:17:47.322Z,58.02
2023-05-09T12:20:15.261Z,56.90
2023-05-09T12:22:45.058Z,55.92
2023-05-09T12:25:12.412Z,55.50
2023-05-09T12:27:40.838Z,54.26
2023-05-09T12:30:10.804Z,53.91
2023-05-09T12:32:39.677Z,54.20
2023-05-09T12:35:10.741Z,55.08
2023-05-09T12:37:37.838Z,53.91
2023-05-09T12:40:15.865Z,54.82
2023-05-09T12:42:46.420Z,55.13
2023-05-09T12:45:13.989Z,54.53
2023-05-09T12:47:42.062Z,54.46
2023-05-09T12:50:11.629Z,54.83
2023-05-09T12:52:50.679Z,54.81
2023-05-09T12:55:25.572Z,54.14
2023-05-09T12:58:03.442Z,53.90
2023-05-09T13:00:42.602Z,54.54
2023-05-09T13:03:25.981Z,54.74
2023-05-09T13:06:03.771Z,54.96
2023-05-09T13:08:30.981Z,54.39
2023-05-09T13:11:12.190Z,54.68
2023-05-09T13:13:42.988Z,55.24
2023-05-09T13:16:10.704Z,55.18
2023-05-09T13:18:38.784Z,54.77
2023-05-09T13:21:05.663Z,54.85
2023-05-09T13:23:32.577Z,54.51
2023-05-09T13:25:59.255Z,55.94
2023-05-09T13:28:25.977Z,55.57
2023-05-09T13:30:52.606Z,56.01
2023-05-09T13:33:25.742Z,54.82
2023-05-09T13:35:53.300Z,55.69
2023-05-09T13:38:19.949Z,56.29
2023-05-09T13:40:46.619Z,57.03
2023-05-09T13:43:13.359Z,57.86
2023-05-09T13:45:40.149Z,58.12
2023-05-09T13:48:06.939Z,60.86
2023-05-09T13:50:34.266Z,61.56
2023-05-09T13:53:00.897Z,62.87
2023-05-09T13:55:27.685Z,62.24
2023-05-09T13:57:54.928Z,63.02
2023-05-09T14:00:22.154Z,65.26
2023-05-09T14:02:48.931Z,66.39
2023-05-09T14:05:16.864Z,67.56
2023-05-09T14:07:43.621Z,67.72
2023-05-09T14:10:12.299Z,66.46
2023-05-09T14:12:40.207Z,67.74
2023-05-09T14:15:08.088Z,67.24
2023-05-09T14:17:34.901Z,68.89
2023-05-09T14:20:01.767Z,69.91
2023-05-09T14:22:28.509Z,70.17
2023-05-09T14:24:57.391Z,69.70
2023-05-09T14:27:25.136Z,69.89
2023-05-09T14:29:52.062Z,71.04
2023-05-09T14:32:18.865Z,71.44
2023-05-09T14:34:45.928Z,70.96
2023-05-09T14:37:15.651Z,70.93
2023-05-09T14:39:43.248Z,70.86
2023-05-09T14:42:11.546Z,70.69
2023-05-09T14:44:38.832Z,70.46
2023-05-09T14:47:05.855Z,70.18
2023-05-09T14:49:32.941Z,69.30
2023-05-09T14:51:59.852Z,69.64
2023-05-09T14:54:26.561Z,70.91
2023-05-09T14:56:53.274Z,70.19
2023-05-09T14:59:20.008Z,70.66
2023-05-09T15:01:47.058Z,71.58
2023-05-09T15:04:13.835Z,72.01
2023-05-09T15:06:41.019Z,72.39
2023-05-09T15:09:07.905Z,72.20
2023-05-09T15:11:46.776Z,71.46
2023-05-09T15:14:16.321Z,71.44
2023-05-09T15:16:43.113Z,71.54
2023-05-09T15:19:09.853Z,73.21
2023-05-09T15:21:36.559Z,72.91
2023-05-09T15:24:04.267Z,73.20
2023-05-09T15:26:31.119Z,74.70
2023-05-09T15:28:57.740Z,73.07
2023-05-09T15:31:25.629Z,73.98
2023-05-09T15:33:52.463Z,73.68
2023-05-09T15:36:19.092Z,74.05
2023-05-09T15:38:49.474Z,74.08
2023-05-09T15:41:16.709Z,74.38
2023-05-09T15:43:43.400Z,74.64
2023-05-09T15:46:10.160Z,75.14
2023-05-09T15:48:36.794Z,75.09
2023-05-09T15:51:04.174Z,75.39
2023-05-09T15:53:30.959Z,75.33
2023-05-09T15:55:57.837Z,76.78
2023-05-09T15:58:24.446Z,77.14
2023-05-09T16:00:52.627Z,76.53
2023-05-09T16:03:19.832Z,75.94
2023-05-09T16:05:46.560Z,76.17
2023-05-09T16:08:13.263Z,76.33
2023-05-09T16:10:40.737Z,76.67
2023-05-09T16:13:07.742Z,76.89
2023-05-09T16:15:35.232Z,78.90
2023-05-09T16:18:02.134Z,79.84
2023-05-09T16:20:28.794Z,79.96
2023-05-09T16:22:55.581Z,80.33
2023-05-09T16:25:22.231Z,79.43
2023-05-09T16:27:49.068Z,80.24
2023-05-09T16:30:16.211Z,79.61
2023-05-09T16:32:43.503Z,79.95
2023-05-09T16:35:10.338Z,79.36
2023-05-09T16:37:37.423Z,79.18
2023-05-09T16:40:04.527Z,78.55
2023-05-09T16:42:31.250Z,79.67
2023-05-09T16:44:57.920Z,79.01
2023-05-09T16:47:24.728Z,78.30
2023-05-09T16:49:51.524Z,79.40
2023-05-09T16:52:18.452Z,79.00
2023-05-09T16:54:45.319Z,79.34
2023-05-09T16:57:12.914Z,80.20
2023-05-09T16:59:39.659Z,79.73
2023-05-09T17:02:06.466Z,80.45
2023-05-09T17:04:34.742Z,81.03
2023-05-09T17:07:02.768Z,81.31
2023-05-09T17:09:29.529Z,79.96
2023-05-09T17:11:56.455Z,81.07
2023-05-09T17:14:23.258Z,81.30
2023-05-09T17:16:50.119Z,81.64
2023-05-09T17:19:16.931Z,81.78
2023-05-09T17:21:44.264Z,80.30
2023-05-09T17:24:10.996Z,80.64
2023-05-09T17:26:38.671Z,80.36
2023-05-09T17:29:05.364Z,81.02
2023-05-09T17:31:32.433Z,81.16
2023-05-09T17:33:59.109Z,80.69
2023-05-09T17:36:25.948Z,81.21
2023-05-09T17:38:52.706Z,81.80
2023-05-09T17:41:19.430Z,81.93
2023-05-09T17:43:46.152Z,82.12
2023-05-09T17:46:14.884Z,82.56
2023-05-09T17:48:42.032Z,82.24
2023-05-09T17:51:09.148Z,82.44
2023-05-09T17:53:35.894Z,83.35
2023-05-09T17:56:02.610Z,83.37
2023-05-09T17:58:29.943Z,83.92
2023-05-09T18:00:58.601Z,83.87
2023-05-09T18:03:27.236Z,83.87
2023-05-09T18:05:53.984Z,84.04
2023-05-09T18:08:20.594Z,84.58
2023-05-09T18:10:47.238Z,84.82
2023-05-09T18:13:14.164Z,84.97
2023-05-09T18:15:41.192Z,84.57
2023-05-09T18:18:07.923Z,84.73
2023-05-09T18:20:34.823Z,84.75
2023-05-09T18:23:01.571Z,85.14
2023-05-09T18:25:28.263Z,85.56
2023-05-09T18:27:55.831Z,85.93
2023-05-09T18:30:22.531Z,85.48
2023-05-09T18:32:49.141Z,83.24
2023-05-09T18:35:16.172Z,84.40
2023-05-09T18:37:42.980Z,84.54
2023-05-09T18:40:14.692Z,85.37
2023-05-09T18:42:42.081Z,85.57
2023-05-09T18:45:10.086Z,85.26
2023-05-09T18:47:37.514Z,85.11
2023-05-09T18:50:05.412Z,85.58
2023-05-09T18:52:32.349Z,86.11
2023-05-09T18:54:58.992Z,85.92
2023-05-09T18:57:26.248Z,86.07
2023-05-09T18:59:52.935Z,86.08
2023-05-09T19:02:20.599Z,85.81
2023-05-09T19:04:48.137Z,85.23
2023-05-09T19:07:15.079Z,85.46
2023-05-09T19:09:42.439Z,85.46
2023-05-09T19:12:09.814Z,85.77
2023-05-09T19:14:37.808Z,86.43
2023-05-09T19:17:05.648Z,87.07
2023-05-09T19:19:32.732Z,86.67
2023-05-09T19:22:00.938Z,85.68
2023-05-09T19:24:28.554Z,85.54
2023-05-09T19:26:55.932Z,86.23
2023-05-09T19:29:22.758Z,86.10
2023-05-09T19:31:49.929Z,86.25
2023-05-09T19:34:16.908Z,86.23
2023-05-09T19:36:43.747Z,87.80
2023-05-09T19:39:11.213Z,87.43
2023-05-09T19:41:38.053Z,87.47
2023-05-09T19:44:06.877Z,86.67
2023-05-09T19:46:35.179Z,86.83
2023-05-09T19:49:02.817Z,87.04
2023-05-09T19:51:29.665Z,86.97
2023-05-09T19:53:56.349Z,87.28
2023-05-09T19:56:23.329Z,86.47
2023-05-09T19:58:50.369Z,87.40
2023-05-09T20:01:19.081Z,87.14
2023-05-09T20:03:47.118Z,87.23
2023-05-09T20:06:13.920Z,87.60
2023-05-09T20:08:40.628Z,87.41
2023-05-09T20:11:07.843Z,86.53
2023-05-09T20:13:34.551Z,87.36
2023-05-09T20:16:02.818Z,87.78
2023-05-09T20:18:33.348Z,87.62
2023-05-09T20:21:00.363Z,87.58
2023-05-09T20:23:29.915Z,86.78
2023-05-09T20:25:56.704Z,87.25
2023-05-09T20:28:23.361Z,86.90
2023-05-09T20:30:50.160Z,87.30
2023-05-09T20:33:16.920Z,87.15
2023-05-09T20:35:43.940Z,87.58
2023-05-09T20:38:11.648Z,86.45
2023-05-09T20:40:38.596Z,87.46
2023-05-09T20:43:05.482Z,86.96
2023-05-09T20:45:32.398Z,87.47
2023-05-09T20:47:59.405Z,87.10
2023-05-09T20:50:26.122Z,86.63
2023-05-09T20:52:52.712Z,86.63
2023-05-09T20:55:19.540Z,86.73
2023-05-09T20:57:46.123Z,87.15
2023-05-09T21:00:13.335Z,87.09
2023-05-09T21:02:40.155Z,86.72
2023-05-09T21:05:07.304Z,86.43
2023-05-09T21:07:33.952Z,86.92
2023-05-09T21:10:00.695Z,87.23
2023-05-09T21:12:27.454Z,87.98
2023-05-09T21:14:54.088Z,88.38
2023-05-09T21:17:20.754Z,87.39
2023-05-09T21:19:51.443Z,87.40
2023-05-09T21:22:18.231Z,87.79
2023-05-09T21:24:44.820Z,87.18
2023-05-09T21:27:11.495Z,87.57
2023-05-09T21:29:38.165Z,88.00
2023-05-09T21:32:05.057Z,87.63
2023-05-09T21:34:31.668Z,86.96
2023-05-09T21:36:58.429Z,87.50
2023-05-09T21:39:25.516Z,88.22
2023-05-09T21:41:52.236Z,87.74
2023-05-09T21:44:18.838Z,87.49
2023-05-09T21:46:46.464Z,87.68
2023-05-09T21:49:16.601Z,87.90
2023-05-09T21:51:43.487Z,88.05
2023-05-09T21:54:10.894Z,88.00
2023-05-09T21:56:37.891Z,88.37
2023-05-09T21:59:04.814Z,87.80
2023-05-09T22:01:31.656Z,88.28
2023-05-09T22:03:58.720Z,88.46
2023-05-09T22:06:25.496Z,88.03
2023-05-09T22:08:52.114Z,88.62
2023-05-09T22:11:18.808Z,87.94
2023-05-09T22:13:45.458Z,87.72
2023-05-09T22:16:12.147Z,87.23
2023-05-09T22:18:38.775Z,87.63
2023-05-09T22:21:05.749Z,87.23
2023-05-09T22:23:32.314Z,87.19
2023-05-09T22:25:58.968Z,88.21
2023-05-09T22:28:25.546Z,87.68
2023-05-09T22:30:52.340Z,87.81
2023-05-09T22:33:18.917Z,87.90
2023-05-09T22:35:45.998Z,87.38
2023-05-09T22:38:12.614Z,88.14
2023-05-09T22:40:39.242Z,87.43
2023-05-09T22:43:05.907Z,88.27
2023-05-09T22:45:32.522Z,88.59
2023-05-09T22:47:59.198Z,87.85
2023-05-09T22:50:25.932Z,86.26
2023-05-09T22:52:52.654Z,86.07
2023-05-09T22:55:20.114Z,87.20
2023-05-09T22:57:47.421Z,87.55
2023-05-09T23:00:15.008Z,88.16
2023-05-09T23:02:42.084Z,88.12
2023-05-09T23:05:09.346Z,87.13
2023-05-09T23:07:36.122Z,87.52
2023-05-09T23:10:03.546Z,87.57
2023-05-09T23:12:30.243Z,88.05
2023-05-09T23:14:56.854Z,88.21
2023-05-09T23:17:23.768Z,87.82
2023-05-09T23:19:50.605Z,87.17
2023-05-09T23:22:17.252Z,87.91
2023-05-09T23:24:43.836Z,87.63
2023-05-09T23:27:10.583Z,88.17
2023-05-09T23:29:37.190Z,88.62
2023-05-09T23:32:04.196Z,88.39
2023-05-09T23:34:31.116Z,88.97
2023-05-09T23:36:57.808Z,88.43
2023-05-09T23:39:24.448Z,88.73
2023-05-09T23:41:51.147Z,87.79
2023-05-09T23:44:17.749Z,87.30
2023-05-09T23:46:44.531Z,87.45
2023-05-09T23:49:13.284Z,88.33
2023-05-09T23:51:40.502Z,87.33
2023-05-09T23:54:07.975Z,87.36
2023-05-09T23:56:34.775Z,88.07
2023-05-09T23:59:01.391Z,88.46
